Time;durP1;ratioP1;P1;durP2;ratioP2;P2;SDS_P1;SDS_P2;PMS_P1;PMS_P2;Temp;Humidity;BMP_temperature;BMP_pressure;BME280_temperature;BME280_humidity;BME280_pressure;Samples;Min_cycle;Max_cycle;Signal;HPM_P1;HPM_P2
2021/06/03 00:00:59;;;;;;;10.63;6.05;;;17.30;99.90;;;;;;5074539;28;20049;-82
2021/06/03 00:03:26;;;;;;;8.88;5.18;;;17.30;99.90;;;;;;5074557;28;20060;-82
2021/06/03 00:05:55;;;;;;;11.82;5.70;;;17.30;99.90;;;;;;5074566;28;20474;-81
2021/06/03 00:08:22;;;;;;;16.25;5.97;;;17.30;99.90;;;;;;5074578;28;20067;-82
2021/06/03 00:10:50;;;;;;;11.07;5.60;;;17.30;99.90;;;;;;5074259;28;20045;-82
2021/06/03 00:13:17;;;;;;;13.02;6.07;;;17.30;99.90;;;;;;5074604;28;20048;-82
2021/06/03 00:15:44;;;;;;;11.15;4.90;;;17.30;99.90;;;;;;5074589;28;20112;-82
2021/06/03 00:18:10;;;;;;;10.93;5.75;;;17.30;99.90;;;;;;5074481;28;20132;-82
2021/06/03 00:20:37;;;;;;;8.52;5.15;;;17.30;99.90;;;;;;5074372;28;20049;-82
2021/06/03 00:23:05;;;;;;;11.77;6.32;;;17.30;99.90;;;;;;5074449;28;20045;-82
2021/06/03 00:25:32;;;;;;;8.32;5.47;;;17.30;99.90;;;;;;5074398;28;20063;-88
2021/06/03 00:27:58;;;;;;;13.15;5.45;;;17.30;99.90;;;;;;5074345;28;20161;-82
2021/06/03 00:30:25;;;;;;;11.00;5.85;;;17.20;99.90;;;;;;5074249;28;20049;-82
2021/06/03 00:32:52;;;;;;;10.93;5.80;;;17.20;99.90;;;;;;5074585;28;20424;-82
2021/06/03 00:35:19;;;;;;;10.23;5.32;;;17.20;99.90;;;;;;5074564;28;20180;-82
2021/06/03 00:37:46;;;;;;;11.45;5.47;;;17.20;99.90;;;;;;5074292;28;20481;-82
2021/06/03 00:40:14;;;;;;;8.05;5.15;;;17.20;99.90;;;;;;5074092;28;20079;-82
2021/06/03 00:42:41;;;;;;;11.55;6.60;;;17.20;99.90;;;;;;5074204;28;20063;-81
2021/06/03 00:45:09;;;;;;;11.50;5.85;;;17.30;99.90;;;;;;5074438;28;20060;-81
2021/06/03 00:47:35;;;;;;;10.57;4.90;;;17.30;99.90;;;;;;5074060;28;20044;-82
2021/06/03 00:50:03;;;;;;;11.30;6.43;;;17.30;99.90;;;;;;5074172;28;20056;-81
2021/06/03 00:52:29;;;;;;;11.52;5.22;;;17.30;99.90;;;;;;5074077;28;20048;-81
2021/06/03 00:54:56;;;;;;;12.93;6.32;;;17.30;99.90;;;;;;5074134;28;20393;-82
2021/06/03 00:57:24;;;;;;;10.88;5.45;;;17.30;99.90;;;;;;5074056;28;20126;-81
2021/06/03 00:59:51;;;;;;;10.05;5.07;;;17.30;99.90;;;;;;5073985;28;20044;-81
2021/06/03 01:02:17;;;;;;;10.20;5.22;;;17.30;99.90;;;;;;5074018;28;20477;-81
2021/06/03 01:04:44;;;;;;;8.82;5.70;;;17.30;99.90;;;;;;5074087;28;20147;-82
2021/06/03 01:07:10;;;;;;;13.80;5.68;;;17.30;99.90;;;;;;5074001;28;20049;-82
2021/06/03 01:09:41;;;;;;;8.43;5.30;;;17.30;99.90;;;;;;5074214;28;20060;-82
2021/06/03 01:12:09;;;;;;;13.02;6.53;;;17.20;99.90;;;;;;5073935;28;20048;-81
2021/06/03 01:14:40;;;;;;;12.60;5.65;;;17.20;99.90;;;;;;5073881;28;20052;-81
2021/06/03 01:17:06;;;;;;;11.00;6.07;;;17.20;99.90;;;;;;5073960;28;20085;-81
2021/06/03 01:19:34;;;;;;;13.13;6.10;;;17.20;99.90;;;;;;5074210;28;20381;-81
2021/06/03 01:22:05;;;;;;;9.27;5.25;;;17.20;99.90;;;;;;5075148;28;20052;-81
2021/06/03 01:24:34;;;;;;;10.15;5.75;;;17.20;99.90;;;;;;5077394;28;20060;-81
2021/06/03 01:27:02;;;;;;;11.93;6.38;;;17.20;99.90;;;;;;5077261;28;20049;-81
2021/06/03 01:29:30;;;;;;;9.45;5.70;;;17.20;99.90;;;;;;5077257;28;20074;-81
2021/06/03 01:31:57;;;;;;;13.75;6.57;;;17.20;99.90;;;;;;5077340;28;20053;-81
2021/06/03 01:34:26;;;;;;;12.50;5.95;;;17.20;99.90;;;;;;5077282;28;20052;-81
2021/06/03 01:36:52;;;;;;;15.27;6.70;;;17.20;99.90;;;;;;5077164;28;20530;-81
2021/06/03 01:39:19;;;;;;;11.40;5.75;;;17.20;99.90;;;;;;5077515;28;20049;-81
2021/06/03 01:41:48;;;;;;;12.60;5.97;;;17.20;99.90;;;;;;5076998;28;20052;-81
2021/06/03 01:44:14;;;;;;;12.55;5.57;;;17.20;99.90;;;;;;5077074;28;20053;-81
2021/06/03 01:46:41;;;;;;;14.05;7.70;;;17.20;99.90;;;;;;5077040;28;20082;-81
2021/06/03 01:49:07;;;;;;;11.45;6.55;;;17.20;99.90;;;;;;5077201;28;20048;-81
2021/06/03 01:51:34;;;;;;;14.48;5.88;;;17.20;99.90;;;;;;5076840;28;20051;-82
2021/06/03 01:54:01;;;;;;;11.43;5.57;;;17.20;99.90;;;;;;5077302;28;20522;-82
2021/06/03 01:56:27;;;;;;;9.95;6.25;;;17.20;99.90;;;;;;5076799;28;20044;-81
2021/06/03 01:58:57;;;;;;;14.85;6.80;;;17.10;99.90;;;;;;5076831;28;20049;-82
2021/06/03 02:01:24;;;;;;;10.57;6.65;;;17.10;99.90;;;;;;5076884;28;20076;-82
2021/06/03 02:03:50;;;;;;;12.90;5.90;;;17.10;99.90;;;;;;5076694;28;20760;-82
2021/06/03 02:06:17;;;;;;;13.90;6.57;;;17.10;99.90;;;;;;5076904;28;20045;-82
2021/06/03 02:08:44;;;;;;;9.07;5.70;;;17.10;99.90;;;;;;5076658;28;20097;-82
2021/06/03 02:11:10;;;;;;;10.38;5.40;;;17.10;99.90;;;;;;5076558;28;20048;-82
2021/06/03 02:13:38;;;;;;;10.68;6.70;;;17.10;99.90;;;;;;5076613;28;20048;-82
2021/06/03 02:16:11;;;;;;;12.10;6.47;;;17.10;99.90;;;;;;5076381;28;20056;-82
2021/06/03 02:18:40;;;;;;;11.00;5.82;;;17.10;99.90;;;;;;5076689;28;20048;-81
2021/06/03 02:21:06;;;;;;;10.35;5.95;;;17.10;99.90;;;;;;5076519;28;20445;-81
2021/06/03 02:23:33;;;;;;;12.25;7.05;;;17.00;99.90;;;;;;5076234;28;20529;-82
2021/06/03 02:26:00;;;;;;;12.00;6.28;;;17.00;99.90;;;;;;5076377;28;20048;-82
2021/06/03 02:28:27;;;;;;;10.98;6.22;;;17.00;99.90;;;;;;5076134;28;20403;-82
2021/06/03 02:30:54;;;;;;;15.15;6.43;;;17.00;99.90;;;;;;5076030;28;20044;-81
2021/06/03 02:33:22;;;;;;;10.82;5.43;;;17.00;99.90;;;;;;5076062;28;20048;-82
2021/06/03 02:35:49;;;;;;;9.02;5.63;;;17.00;99.90;;;;;;5076121;28;20059;-81
2021/06/03 02:38:17;;;;;;;11.77;6.60;;;17.00;99.90;;;;;;5076163;28;20048;-81
2021/06/03 02:40:44;;;;;;;13.02;5.68;;;16.90;99.90;;;;;;5075831;28;20041;-81
2021/06/03 02:43:10;;;;;;;9.15;4.93;;;17.00;99.90;;;;;;5075915;28;20056;-82
2021/06/03 02:45:37;;;;;;;13.23;6.55;;;17.00;99.90;;;;;;5075752;28;20049;-82
2021/06/03 02:48:04;;;;;;;14.02;6.32;;;17.00;99.90;;;;;;5075773;28;20059;-81
2021/06/03 02:50:32;;;;;;;13.52;6.03;;;16.90;99.90;;;;;;5075764;28;20052;-82
2021/06/03 02:52:59;;;;;;;14.95;6.05;;;16.90;99.90;;;;;;5075753;28;20483;-81
2021/06/03 02:55:25;;;;;;;10.20;6.30;;;16.90;99.90;;;;;;5075675;28;20049;-82
2021/06/03 02:57:52;;;;;;;11.90;6.15;;;16.90;99.90;;;;;;5075405;28;20060;-82
2021/06/03 03:00:21;;;;;;;8.90;6.10;;;16.90;99.90;;;;;;5075393;28;20044;-82
2021/06/03 03:02:47;;;;;;;15.15;5.90;;;16.90;99.90;;;;;;5075579;28;20064;-82
2021/06/03 03:05:14;;;;;;;13.40;6.53;;;16.80;99.90;;;;;;5075511;28;20054;-82
2021/06/03 03:07:42;;;;;;;9.45;5.35;;;16.80;99.90;;;;;;5075447;28;20059;-82
2021/06/03 03:10:13;;;;;;;11.13;5.63;;;16.80;99.90;;;;;;5075385;28;20055;-82
2021/06/03 03:12:40;;;;;;;9.70;5.95;;;16.80;99.90;;;;;;5075282;28;20044;-82
2021/06/03 03:15:08;;;;;;;10.13;5.22;;;16.80;99.90;;;;;;5075233;28;20529;-82
2021/06/03 03:17:34;;;;;;;11.95;5.97;;;16.80;99.90;;;;;;5075402;28;20053;-82
2021/06/03 03:20:01;;;;;;;9.57;5.10;;;16.80;99.90;;;;;;5075355;28;20048;-82
2021/06/03 03:22:28;;;;;;;13.48;6.50;;;16.80;99.90;;;;;;5075182;28;20045;-82
2021/06/03 03:24:56;;;;;;;12.18;6.05;;;16.80;99.90;;;;;;5075285;28;20468;-81
2021/06/03 03:27:22;;;;;;;12.27;6.22;;;16.80;99.90;;;;;;5075067;28;20401;-82
2021/06/03 03:29:49;;;;;;;11.35;6.15;;;16.80;99.90;;;;;;5075267;28;20057;-82
2021/06/03 03:32:15;;;;;;;13.15;6.03;;;16.70;99.90;;;;;;5074993;28;20040;-82
2021/06/03 03:34:42;;;;;;;14.30;6.28;;;16.70;99.90;;;;;;5074920;28;20472;-82
2021/06/03 03:37:09;;;;;;;12.30;6.45;;;16.70;99.90;;;;;;5075220;28;20056;-82
2021/06/03 03:39:35;;;;;;;10.18;5.80;;;16.70;99.90;;;;;;5075193;28;20044;-82
2021/06/03 03:42:04;;;;;;;11.85;6.13;;;16.60;99.90;;;;;;5074821;28;20399;-81
2021/06/03 03:44:30;;;;;;;10.50;5.57;;;16.60;99.90;;;;;;5074356;28;20059;-81
2021/06/03 03:46:57;;;;;;;10.02;5.90;;;16.70;99.90;;;;;;5074941;28;20128;-81
2021/06/03 03:49:23;;;;;;;9.50;5.50;;;16.60;99.90;;;;;;5074845;28;20060;-82
2021/06/03 03:51:50;;;;;;;15.30;6.38;;;16.60;99.90;;;;;;5074824;28;20040;-81
2021/06/03 03:54:17;;;;;;;9.25;4.82;;;16.60;99.90;;;;;;5074760;28;20464;-82
2021/06/03 03:56:44;;;;;;;9.10;5.38;;;16.70;99.90;;;;;;5074550;28;20159;-81
2021/06/03 03:59:12;;;;;;;9.95;5.75;;;16.70;99.90;;;;;;5074696;28;20372;-82
2021/06/03 04:01:39;;;;;;;9.10;5.38;;;16.60;99.90;;;;;;5074765;28;20049;-82
2021/06/03 04:04:05;;;;;;;11.48;5.75;;;16.60;99.90;;;;;;5074781;28;20122;-82
2021/06/03 04:06:32;;;;;;;9.18;5.68;;;16.70;99.90;;;;;;5074810;28;20048;-82
2021/06/03 04:08:58;;;;;;;10.63;6.63;;;16.70;99.90;;;;;;5074674;28;20056;-82
2021/06/03 04:11:25;;;;;;;13.05;4.97;;;16.70;99.90;;;;;;5074672;28;20044;-82
2021/06/03 04:13:52;;;;;;;12.63;5.72;;;16.70;99.90;;;;;;5074707;28;20048;-82
2021/06/03 04:16:20;;;;;;;9.90;5.47;;;16.70;99.90;;;;;;5074584;28;20056;-82
2021/06/03 04:18:46;;;;;;;10.68;5.78;;;16.70;99.90;;;;;;5074620;28;20063;-82
2021/06/03 04:21:13;;;;;;;7.88;5.10;;;16.70;99.90;;;;;;5074456;28;20052;-82
2021/06/03 04:23:39;;;;;;;9.02;5.45;;;16.70;99.90;;;;;;5074501;28;20081;-82
2021/06/03 04:26:06;;;;;;;8.82;5.75;;;16.70;99.90;;;;;;5074406;28;20048;-83
2021/06/03 04:28:33;;;;;;;10.57;5.82;;;16.60;99.90;;;;;;5074628;28;20392;-83
2021/06/03 04:30:59;;;;;;;9.40;5.60;;;16.60;99.90;;;;;;5074610;28;20045;-82
2021/06/03 04:33:27;;;;;;;11.10;5.80;;;16.60;99.90;;;;;;5074391;28;20388;-82
2021/06/03 04:35:54;;;;;;;14.25;6.13;;;16.50;99.90;;;;;;5074388;28;20369;-82
2021/06/03 04:38:20;;;;;;;9.50;5.60;;;16.60;99.90;;;;;;5073711;28;20066;-82
2021/06/03 04:40:47;;;;;;;10.75;6.40;;;16.60;99.90;;;;;;5073536;28;20078;-82
2021/06/03 04:43:14;;;;;;;10.00;5.55;;;16.60;99.90;;;;;;5073963;28;20044;-75
2021/06/03 04:45:40;;;;;;;10.50;4.90;;;16.60;99.90;;;;;;5074307;28;20048;-75
2021/06/03 04:48:08;;;;;;;11.73;6.43;;;16.60;99.90;;;;;;5074016;28;20098;-75
2021/06/03 04:50:36;;;;;;;11.10;5.90;;;16.60;99.90;;;;;;5074187;28;20109;-75
2021/06/03 04:53:02;;;;;;;12.77;6.32;;;16.60;99.90;;;;;;5074083;28;20056;-75
2021/06/03 04:55:29;;;;;;;12.13;6.13;;;16.70;99.90;;;;;;5074335;28;20049;-75
2021/06/03 04:57:56;;;;;;;10.68;6.38;;;16.70;99.90;;;;;;5077114;28;20140;-75
2021/06/03 05:00:23;;;;;;;11.45;6.00;;;16.70;99.90;;;;;;5077767;28;20525;-75
2021/06/03 05:02:50;;;;;;;10.10;6.07;;;16.70;99.90;;;;;;5077990;28;20045;-75
2021/06/03 05:05:17;;;;;;;14.43;5.28;;;16.70;99.90;;;;;;5077750;28;20048;-75
2021/06/03 05:07:46;;;;;;;12.38;6.03;;;16.70;99.90;;;;;;5077692;28;20178;-84
2021/06/03 05:10:13;;;;;;;10.57;5.43;;;16.70;99.90;;;;;;5077814;28;20110;-82
2021/06/03 05:12:39;;;;;;;10.93;5.90;;;16.70;99.90;;;;;;5077776;28;20048;-82
2021/06/03 05:15:07;;;;;;;14.27;5.90;;;16.70;99.90;;;;;;5077589;28;20050;-81
2021/06/03 05:17:34;;;;;;;8.80;5.38;;;16.70;99.90;;;;;;5077672;28;20129;-82
2021/06/03 05:20:00;;;;;;;10.98;5.32;;;16.60;99.90;;;;;;5077503;28;20062;-84
2021/06/03 05:22:27;;;;;;;8.98;5.50;;;16.70;99.90;;;;;;5077388;28;20045;-81
2021/06/03 05:24:55;;;;;;;8.52;5.75;;;16.70;99.90;;;;;;5077485;28;20048;-82
2021/06/03 05:27:21;;;;;;;11.15;7.18;;;16.70;99.90;;;;;;5077572;28;20044;-82
2021/06/03 05:29:48;;;;;;;9.40;5.78;;;16.70;99.90;;;;;;5077370;28;20049;-82
2021/06/03 05:32:15;;;;;;;13.70;6.47;;;16.70;99.90;;;;;;5077266;28;20048;-82
2021/06/03 05:34:42;;;;;;;12.57;5.60;;;16.70;99.90;;;;;;5082613;28;20070;-82
2021/06/03 05:37:08;;;;;;;8.20;5.07;;;16.70;99.90;;;;;;5087495;28;20472;-81
2021/06/03 05:39:35;;;;;;;14.77;6.43;;;16.70;99.90;;;;;;5086123;28;20045;-82
2021/06/03 05:42:03;;;;;;;10.23;6.65;;;16.70;99.90;;;;;;5079397;28;20048;-81
2021/06/03 05:44:31;;;;;;;11.43;5.45;;;16.70;99.90;;;;;;5077099;28;20456;-81
2021/06/03 05:46:57;;;;;;;10.05;6.28;;;16.70;99.90;;;;;;5077074;28;20130;-82
2021/06/03 05:49:26;;;;;;;14.10;6.45;;;16.70;99.90;;;;;;5077052;28;20452;-80
2021/06/03 05:51:52;;;;;;;15.55;6.35;;;16.70;99.90;;;;;;5076892;28;20098;-82
2021/06/03 05:54:19;;;;;;;10.60;5.93;;;16.60;99.90;;;;;;5077288;28;20055;-82
2021/06/03 05:56:46;;;;;;;12.35;6.07;;;16.70;99.90;;;;;;5076557;28;20056;-82
2021/06/03 05:59:14;;;;;;;8.63;5.15;;;16.70;99.90;;;;;;5076965;28;20124;-82
2021/06/03 06:01:40;;;;;;;8.93;5.75;;;16.70;99.90;;;;;;5076695;28;20052;-82
2021/06/03 06:04:19;;;;;;;8.85;6.20;;;16.70;99.90;;;;;;5076622;28;20052;-82
2021/06/03 06:06:45;;;;;;;10.00;5.70;;;16.70;99.90;;;;;;5076794;28;20408;-82
2021/06/03 06:09:11;;;;;;;11.70;6.22;;;16.70;99.90;;;;;;5076573;28;20054;-82
2021/06/03 06:11:39;;;;;;;10.95;5.78;;;16.70;99.90;;;;;;5085483;28;20128;-83
2021/06/03 06:14:06;;;;;;;10.40;5.97;;;16.80;99.90;;;;;;5095362;28;20418;-82
2021/06/03 06:16:35;;;;;;;11.10;5.97;;;16.80;99.90;;;;;;5096608;28;20108;-82
2021/06/03 06:19:02;;;;;;;10.77;6.75;;;16.90;99.90;;;;;;5096712;28;20052;-82
2021/06/03 06:21:28;;;;;;;9.68;5.47;;;17.00;99.90;;;;;;5096482;28;20047;-82
2021/06/03 06:23:55;;;;;;;9.82;5.78;;;17.00;99.90;;;;;;5096611;28;20052;-82
2021/06/03 06:26:22;;;;;;;9.73;5.55;;;17.10;99.90;;;;;;5096372;28;20109;-82
2021/06/03 06:28:49;;;;;;;12.25;6.43;;;17.20;99.90;;;;;;5096413;28;20048;-81
2021/06/03 06:31:15;;;;;;;10.13;5.47;;;17.30;99.90;;;;;;5096385;28;20040;-82
2021/06/03 06:33:43;;;;;;;10.50;6.28;;;17.30;99.90;;;;;;5096244;28;20059;-81
2021/06/03 06:36:10;;;;;;;13.15;5.93;;;17.30;99.90;;;;;;5096272;28;20048;-81
2021/06/03 06:38:37;;;;;;;8.55;5.38;;;17.30;99.90;;;;;;5096302;28;20066;-81
2021/06/03 06:41:04;;;;;;;11.23;6.45;;;17.40;99.90;;;;;;5096046;28;20054;-81
2021/06/03 06:43:30;;;;;;;12.90;5.97;;;17.40;99.90;;;;;;5096089;28;20059;-81
2021/06/03 06:45:57;;;;;;;11.70;5.40;;;17.50;99.90;;;;;;5095985;28;20464;-82
2021/06/03 06:48:24;;;;;;;8.95;5.45;;;17.60;99.90;;;;;;5095981;28;20105;-80
2021/06/03 06:50:52;;;;;;;12.18;6.18;;;17.70;99.90;;;;;;5096322;28;20196;-81
2021/06/03 06:53:18;;;;;;;10.10;5.68;;;17.70;99.90;;;;;;5096157;28;20066;-81
2021/06/03 06:55:45;;;;;;;13.25;5.47;;;17.70;99.90;;;;;;5095919;28;20048;-81
2021/06/03 06:58:12;;;;;;;10.18;5.47;;;17.70;99.90;;;;;;5095764;28;20052;-81
2021/06/03 07:00:39;;;;;;;10.52;6.07;;;17.70;99.90;;;;;;5095902;28;20052;-82
2021/06/03 07:03:07;;;;;;;10.73;6.07;;;17.80;99.90;;;;;;5095730;28;20048;-82
2021/06/03 07:05:33;;;;;;;10.27;5.63;;;17.80;99.90;;;;;;5095836;28;20063;-81
2021/06/03 07:08:02;;;;;;;11.23;5.78;;;18.00;99.90;;;;;;5095776;28;20052;-81
2021/06/03 07:10:29;;;;;;;10.00;5.65;;;18.30;99.90;;;;;;5095588;28;20052;-82
2021/06/03 07:12:55;;;;;;;9.23;5.72;;;18.50;99.90;;;;;;5095712;28;20040;-81
2021/06/03 07:15:22;;;;;;;12.00;6.25;;;18.70;99.90;;;;;;5095704;28;20048;-82
2021/06/03 07:17:49;;;;;;;8.38;5.05;;;18.80;99.90;;;;;;5095462;28;20058;-81
2021/06/03 07:20:18;;;;;;;7.55;4.75;;;18.80;99.90;;;;;;5095081;28;20063;-81
2021/06/03 07:22:46;;;;;;;10.70;6.68;;;18.80;99.90;;;;;;5095234;28;20406;-81
2021/06/03 07:25:14;;;;;;;14.52;6.75;;;18.70;99.90;;;;;;5095433;28;20048;-81
2021/06/03 07:27:41;;;;;;;9.38;6.18;;;18.70;99.90;;;;;;5095360;28;20048;-81
2021/06/03 07:30:09;;;;;;;10.82;5.82;;;18.70;99.90;;;;;;5095588;28;20352;-81
2021/06/03 07:32:36;;;;;;;10.20;6.63;;;18.70;99.90;;;;;;5095274;28;20379;-81
2021/06/03 07:35:04;;;;;;;12.38;5.65;;;18.80;99.90;;;;;;5095300;28;20115;-81
2021/06/03 07:37:31;;;;;;;10.05;5.70;;;18.80;99.90;;;;;;5095219;28;20052;-80
2021/06/03 07:39:57;;;;;;;9.20;5.80;;;18.80;99.90;;;;;;5095174;28;20105;-82
2021/06/03 07:42:25;;;;;;;10.05;6.25;;;18.80;99.90;;;;;;5094852;28;20044;-80
2021/06/03 07:44:52;;;;;;;10.05;6.40;;;18.80;99.90;;;;;;5095257;28;20048;-81
2021/06/03 07:47:18;;;;;;;10.02;5.70;;;18.60;99.90;;;;;;5095058;28;20048;-82
2021/06/03 07:49:45;;;;;;;9.57;6.30;;;18.60;99.90;;;;;;5095070;28;20052;-80
2021/06/03 07:52:11;;;;;;;14.05;5.70;;;18.50;99.90;;;;;;5095031;28;20054;-80
2021/06/03 07:54:38;;;;;;;11.48;6.35;;;18.50;99.90;;;;;;5094905;28;20055;-82
2021/06/03 07:57:05;;;;;;;14.93;6.22;;;18.40;99.90;;;;;;5094608;28;20052;-81
2021/06/03 07:59:33;;;;;;;7.65;5.22;;;18.30;99.90;;;;;;5094967;28;20056;-82
2021/06/03 08:02:00;;;;;;;10.23;5.85;;;18.30;99.90;;;;;;5094881;28;20048;-81
2021/06/03 08:04:27;;;;;;;10.90;6.20;;;18.30;99.90;;;;;;5094857;28;20050;-81
2021/06/03 08:06:53;;;;;;;11.15;7.10;;;18.30;99.90;;;;;;5094680;28;20052;-81
2021/06/03 08:09:20;;;;;;;15.07;6.38;;;18.40;99.90;;;;;;5094686;28;20537;-82
2021/06/03 08:11:46;;;;;;;14.18;7.13;;;18.40;99.90;;;;;;5094566;28;20051;-82
2021/06/03 08:14:13;;;;;;;13.30;6.13;;;18.50;99.90;;;;;;5094844;28;20052;-81
2021/06/03 08:16:42;;;;;;;9.80;6.25;;;18.40;99.90;;;;;;5094968;28;20044;-82
2021/06/03 08:19:08;;;;;;;9.32;6.13;;;18.40;99.90;;;;;;5094730;28;20052;-81
2021/06/03 08:21:35;;;;;;;10.60;5.68;;;18.40;99.90;;;;;;5094820;28;20048;-81
2021/06/03 08:24:02;;;;;;;9.15;5.60;;;18.40;99.90;;;;;;5094573;28;20143;-81
2021/06/03 08:26:28;;;;;;;14.23;6.45;;;18.40;99.90;;;;;;5094596;28;20040;-81
2021/06/03 08:28:56;;;;;;;11.55;6.97;;;18.40;99.90;;;;;;5094776;28;20101;-82
2021/06/03 08:31:23;;;;;;;14.07;6.75;;;18.40;99.90;;;;;;5096781;28;20135;-81
2021/06/03 08:33:51;;;;;;;10.95;6.18;;;18.40;99.90;;;;;;5098709;28;20104;-82
2021/06/03 08:36:17;;;;;;;12.13;7.30;;;18.40;99.90;;;;;;5098523;28;20052;-82
2021/06/03 08:38:45;;;;;;;12.35;7.38;;;18.40;99.90;;;;;;5098513;28;20056;-81
2021/06/03 08:41:11;;;;;;;12.05;6.85;;;18.50;99.90;;;;;;5098360;28;20047;-81
2021/06/03 08:43:38;;;;;;;13.68;6.20;;;18.50;99.90;;;;;;5098336;28;20418;-82
2021/06/03 08:46:05;;;;;;;14.93;5.90;;;18.60;99.90;;;;;;5098427;28;20150;-82
2021/06/03 08:48:31;;;;;;;10.80;6.28;;;18.60;99.90;;;;;;5098401;28;20048;-82
2021/06/03 08:51:01;;;;;;;12.30;6.22;;;18.60;99.90;;;;;;5098251;28;20044;-81
2021/06/03 08:53:27;;;;;;;9.73;6.15;;;18.60;99.90;;;;;;5098253;28;20135;-81
2021/06/03 08:58:38;;;;;;;10.68;6.47;;;18.70;99.90;;;;;;5098139;28;20063;-82
2021/06/03 09:01:05;;;;;;;12.40;6.57;;;18.70;99.90;;;;;;5098113;28;20117;-81
2021/06/03 09:03:33;;;;;;;12.00;6.93;;;18.70;99.90;;;;;;5098197;28;20124;-81
2021/06/03 09:06:01;;;;;;;14.10;7.60;;;18.70;99.90;;;;;;5098072;28;20486;-81
2021/06/03 09:08:28;;;;;;;10.88;6.35;;;18.80;99.90;;;;;;5098337;28;20052;-81
2021/06/03 09:10:55;;;;;;;13.70;7.50;;;18.80;99.90;;;;;;5098076;28;20051;-81
2021/06/03 09:13:23;;;;;;;10.93;6.13;;;18.90;99.90;;;;;;5098275;28;20044;-81
2021/06/03 09:15:50;;;;;;;13.05;7.10;;;19.00;99.90;;;;;;5098003;28;20044;-81
2021/06/03 09:18:17;;;;;;;14.43;6.90;;;19.10;99.90;;;;;;5097778;28;20464;-80
2021/06/03 09:20:45;;;;;;;13.77;6.80;;;19.20;99.90;;;;;;5095036;28;20135;-81
2021/06/03 09:23:27;;;;;;;12.73;6.32;;;19.30;99.90;;;;;;5096235;28;20112;-81
2021/06/03 09:25:56;;;;;;;9.32;5.53;;;19.40;99.90;;;;;;5097869;28;20048;-81
2021/06/03 09:28:25;;;;;;;14.95;7.47;;;19.60;99.90;;;;;;5097363;28;20063;-81
2021/06/03 09:31:04;;;;;;;19.05;8.30;;;19.60;99.90;;;;;;5097606;28;20434;-81
2021/06/03 09:33:38;;;;;;;13.40;6.82;;;19.70;99.90;;;;;;5097198;28;20105;-81
2021/06/03 09:36:06;;;;;;;12.02;6.55;;;19.80;99.90;;;;;;5097112;28;20101;-81
2021/06/03 09:38:34;;;;;;;15.50;7.63;;;19.90;99.90;;;;;;5097494;28;20052;-81
2021/06/03 09:41:01;;;;;;;10.85;6.15;;;20.00;99.90;;;;;;5097549;28;20048;-81
2021/06/03 09:43:27;;;;;;;11.98;6.93;;;20.00;99.90;;;;;;5096540;28;20135;-81
2021/06/03 09:45:55;;;;;;;12.77;7.13;;;20.00;99.90;;;;;;5097382;28;20058;-81
2021/06/03 09:48:35;;;;;;;12.50;7.05;;;20.00;99.90;;;;;;5097191;28;20052;-80
2021/06/03 09:51:25;;;;;;;12.30;7.38;;;20.20;99.90;;;;;;5096942;28;20383;-81
2021/06/03 09:53:57;;;;;;;22.85;9.13;;;20.30;99.90;;;;;;5097217;28;20522;-81
2021/06/03 09:56:25;;;;;;;10.18;6.90;;;20.10;99.90;;;;;;5097146;28;20056;-80
2021/06/03 09:58:52;;;;;;;12.10;7.28;;;19.90;99.90;;;;;;5097251;28;20062;-81
2021/06/03 10:01:44;;;;;;;16.10;8.13;;;19.80;99.90;;;;;;5097059;28;20055;-81
2021/06/03 10:04:11;;;;;;;10.82;7.22;;;19.70;99.90;;;;;;5072766;28;20049;-81
2021/06/03 10:06:55;;;;;;;14.20;6.88;;;19.60;99.90;;;;;;5097027;28;20051;-81
2021/06/03 10:09:51;;;;;;;14.18;7.68;;;19.50;99.90;;;;;;5096939;28;20055;-81
2021/06/03 10:12:41;;;;;;;9.73;5.75;;;19.50;99.90;;;;;;4995576;28;20062;-81
2021/06/03 10:15:16;;;;;;;13.05;6.85;;;19.50;99.90;;;;;;4995636;28;20065;-81
2021/06/03 10:17:48;;;;;;;13.32;6.45;;;19.50;99.90;;;;;;4995454;28;20061;-81
2021/06/03 10:20:17;;;;;;;11.95;5.78;;;19.50;99.90;;;;;;4995401;28;20146;-81
2021/06/03 10:22:44;;;;;;;13.50;7.03;;;19.60;99.90;;;;;;4995312;28;20047;-81
2021/06/03 10:25:13;;;;;;;10.27;5.93;;;19.60;99.90;;;;;;4995386;28;20053;-81
2021/06/03 10:27:41;;;;;;;11.40;5.70;;;19.50;99.90;;;;;;4995317;28;20382;-82
2021/06/03 10:30:10;;;;;;;12.18;5.60;;;19.50;99.90;;;;;;4995368;28;20066;-82
2021/06/03 10:32:37;;;;;;;8.88;5.57;;;19.50;99.90;;;;;;4995176;28;20050;-81
2021/06/03 10:35:06;;;;;;;10.45;6.10;;;19.50;99.90;;;;;;4995120;28;20521;-81
2021/06/03 10:37:33;;;;;;;8.07;5.05;;;19.60;99.90;;;;;;4995137;28;20056;-81
2021/06/03 10:40:00;;;;;;;9.40;6.40;;;19.80;99.90;;;;;;4995048;28;20050;-81
2021/06/03 10:42:31;;;;;;;11.15;7.22;;;19.80;99.90;;;;;;4994865;28;20047;-81
2021/06/03 10:44:57;;;;;;;13.70;8.07;;;19.70;99.90;;;;;;4995098;28;20054;-81
2021/06/03 10:47:24;;;;;;;15.57;9.90;;;19.70;99.90;;;;;;5023578;28;20058;-81
2021/06/03 10:49:50;;;;;;;14.15;8.25;;;19.50;99.90;;;;;;5096017;28;20052;-81
2021/06/03 10:52:17;;;;;;;16.80;8.27;;;19.40;99.90;;;;;;5096081;28;20052;-81
2021/06/03 10:54:49;;;;;;;13.55;8.88;;;19.40;99.90;;;;;;5095887;28;20044;-81
2021/06/03 10:57:16;;;;;;;19.80;9.60;;;19.50;99.90;;;;;;5095850;28;20495;-81
2021/06/03 10:59:44;;;;;;;12.80;8.73;;;19.60;99.90;;;;;;5095986;28;20052;-82
2021/06/03 11:02:11;;;;;;;15.95;9.30;;;19.70;99.90;;;;;;5095783;28;20040;-81
2021/06/03 11:04:39;;;;;;;14.88;8.63;;;19.80;99.90;;;;;;5095865;28;20062;-81
2021/06/03 11:07:05;;;;;;;17.25;9.70;;;19.80;99.90;;;;;;5095991;28;20048;-81
2021/06/03 11:09:33;;;;;;;15.70;9.93;;;19.80;99.90;;;;;;5095578;28;20056;-81
2021/06/03 11:12:17;;;;;;;18.75;11.07;;;20.00;99.90;;;;;;5095610;28;20051;-81
2021/06/03 11:15:10;;;;;;;17.50;9.55;;;20.10;99.90;;;;;;5095514;28;20051;-81
2021/06/03 11:18:01;;;;;;;19.92;10.63;;;20.20;99.90;;;;;;5072092;28;20052;-81
2021/06/03 11:20:40;;;;;;;26.85;11.65;;;20.40;99.90;;;;;;5095409;28;20062;-81
2021/06/03 11:23:44;;;;;;;19.38;10.07;;;20.70;99.90;;;;;;5095718;28;20044;-81
2021/06/03 11:26:46;;;;;;;22.27;12.05;;;20.80;99.90;;;;;;5095506;28;20081;-80
2021/06/03 11:29:13;;;;;;;24.10;12.80;;;20.80;99.90;;;;;;5095271;28;20105;-81
2021/06/03 11:31:42;;;;;;;21.02;12.73;;;20.80;99.90;;;;;;5095338;28;20040;-81
2021/06/03 11:34:09;;;;;;;23.02;11.73;;;20.60;99.90;;;;;;5095253;28;20047;-81
2021/06/03 11:36:36;;;;;;;20.42;12.25;;;20.50;99.90;;;;;;5095580;28;20105;-81
2021/06/03 11:39:04;;;;;;;26.58;13.38;;;20.40;99.90;;;;;;5095162;28;20058;-81
2021/06/03 11:41:37;;;;;;;21.95;12.45;;;20.20;99.90;;;;;;5095215;28;20055;-81
2021/06/03 11:44:09;;;;;;;25.58;12.02;;;20.10;99.90;;;;;;5097751;28;20059;-84
2021/06/03 11:47:01;;;;;;;20.92;11.23;;;20.00;99.90;;;;;;5095487;28;20056;-86
2021/06/03 11:49:34;;;;;;;20.98;12.07;;;19.90;99.90;;;;;;5089339;28;20097;-88
2021/06/03 11:52:10;;;;;;;26.95;11.82;;;19.80;99.90;;;;;;5095011;28;20467;-85
2021/06/03 11:54:54;;;;;;;20.63;12.05;;;19.60;99.90;;;;;;5095926;28;20048;-89
2021/06/03 11:57:20;;;;;;;23.42;12.18;;;19.40;99.90;;;;;;5095402;28;20056;-88
2021/06/03 11:59:57;;;;;;;20.85;11.15;;;19.30;99.90;;;;;;5095008;28;20448;-85
2021/06/03 12:02:34;;;;;;;21.20;10.65;;;19.20;99.90;;;;;;5096546;28;20456;-88
2021/06/03 12:05:17;;;;;;;17.45;11.00;;;19.10;99.90;;;;;;5094403;28;20444;-82
2021/06/03 12:07:44;;;;;;;23.85;11.18;;;19.00;99.90;;;;;;5094895;28;20055;-82
2021/06/03 12:10:11;;;;;;;24.02;12.40;;;18.90;99.90;;;;;;5095912;28;20052;-92
2021/06/03 12:12:38;;;;;;;25.40;14.02;;;18.90;99.90;;;;;;5095450;28;20040;-91
2021/06/03 12:15:16;;;;;;;26.25;14.15;;;18.90;99.90;;;;;;5094246;28;20427;-84
2021/06/03 12:17:44;;;;;;;29.65;14.60;;;19.00;99.90;;;;;;5094979;28;20055;-91
2021/06/03 12:20:12;;;;;;;25.15;14.27;;;19.20;99.90;;;;;;5095253;28;20101;-82
2021/06/03 12:22:38;;;;;;;21.25;12.55;;;19.40;99.90;;;;;;5094534;28;20052;-81
2021/06/03 12:25:06;;;;;;;31.27;13.20;;;19.60;99.90;;;;;;5094587;28;20067;-81
2021/06/03 12:27:33;;;;;;;26.90;15.05;;;19.80;99.90;;;;;;5094614;28;20047;-85
2021/06/03 12:30:11;;;;;;;21.65;12.65;;;19.90;99.90;;;;;;5094756;28;20135;-83
2021/06/03 12:32:38;;;;;;;21.02;11.00;;;20.10;99.90;;;;;;5094530;28;20083;-83
2021/06/03 12:35:07;;;;;;;21.75;11.65;;;20.10;99.90;;;;;;5094532;28;20482;-83
2021/06/03 12:37:34;;;;;;;22.90;12.25;;;20.20;99.90;;;;;;5094457;28;20484;-83
2021/06/03 12:40:00;;;;;;;19.75;12.43;;;20.30;99.90;;;;;;5094457;28;20064;-83
2021/06/03 12:42:29;;;;;;;19.55;10.85;;;20.40;99.90;;;;;;5094491;28;20414;-83
2021/06/03 12:44:57;;;;;;;21.80;11.68;;;20.40;99.90;;;;;;5094400;28;20063;-82
2021/06/03 12:47:23;;;;;;;19.73;10.90;;;20.50;99.90;;;;;;5094356;28;20044;-83